createdAt,value
2023-05-06T00:00:17.860Z,100554.97
2023-05-06T00:02:48.418Z,100558.22
2023-05-06T00:05:21.619Z,100560.16
2023-05-06T00:07:51.884Z,100562.94
2023-05-06T00:10:22.165Z,100566.06
2023-05-06T00:12:52.385Z,100561.78
2023-05-06T00:15:22.741Z,100563.28
2023-05-06T00:17:53.531Z,100568.59
2023-05-06T00:20:23.848Z,100564.44
2023-05-06T00:22:54.495Z,100567.78
2023-05-06T00:25:25.111Z,100571.25
2023-05-06T00:27:56.271Z,100577.16
2023-05-06T00:30:27.356Z,100590.22
2023-05-06T00:32:58.425Z,100593.78
2023-05-06T00:35:28.646Z,100597.25
2023-05-06T00:38:15.177Z,100602.81
2023-05-06T00:40:45.815Z,100601.53
2023-05-06T00:43:16.150Z,100602.47
2023-05-06T00:45:47.586Z,100614.94
2023-05-06T00:48:19.814Z,100616.66
2023-05-06T00:50:50.572Z,100612.97
2023-05-06T00:53:24.243Z,100625.34
2023-05-06T00:55:55.199Z,100628.13
2023-05-06T00:58:25.679Z,100616.19
2023-05-06T01:00:57.589Z,100622.56
2023-05-06T01:03:28.513Z,100629.28
2023-05-06T01:06:24.694Z,100632.38
2023-05-06T01:09:03.975Z,100623.16
2023-05-06T01:11:49.189Z,100629.16
2023-05-06T01:14:43.865Z,100628.47
2023-05-06T01:17:17.435Z,100634.94
2023-05-06T01:19:55.678Z,100630.78
2023-05-06T01:22:27.387Z,100641.06
2023-05-06T01:24:57.714Z,100645.44
2023-05-06T01:27:34.316Z,100649.16
2023-05-06T01:30:08.045Z,100652.97
2023-05-06T01:33:00.836Z,100655.50
2023-05-06T01:35:52.450Z,100656.66
2023-05-06T01:38:40.958Z,100657.13
2023-05-06T01:41:16.787Z,100658.41
2023-05-06T01:43:50.228Z,100661.28
2023-05-06T01:46:26.601Z,100663.72
2023-05-06T01:48:59.498Z,100667.31
2023-05-06T01:51:30.443Z,100668.38
2023-05-06T01:54:00.896Z,100673.31
2023-05-06T01:56:34.622Z,100676.34
2023-05-06T01:59:05.097Z,100677.63
2023-05-06T02:01:35.704Z,100680.50
2023-05-06T02:04:07.166Z,100677.19
2023-05-06T02:06:38.801Z,100679.78
2023-05-06T02:09:11.468Z,100677.97
2023-05-06T02:11:46.703Z,100679.69
2023-05-06T02:14:17.263Z,100674.72
2023-05-06T02:16:48.044Z,100668.94
2023-05-06T02:19:19.867Z,100668.94
2023-05-06T02:21:50.455Z,100669.88
2023-05-06T02:24:21.332Z,100666.16
2023-05-06T02:26:52.017Z,100663.84
2023-05-06T02:29:22.362Z,100667.06
2023-05-06T02:31:54.900Z,100666.16
2023-05-06T02:34:25.324Z,100666.94
2023-05-06T02:36:57.518Z,100672.59
2023-05-06T02:39:28.377Z,100673.06
2023-05-06T02:41:59.387Z,100662.09
2023-05-06T02:44:32.116Z,100665.44
2023-05-06T02:47:03.037Z,100670.75
2023-05-06T02:49:34.016Z,100669.25
2023-05-06T02:52:05.644Z,100656.66
2023-05-06T02:54:36.765Z,100660.50
2023-05-06T02:57:08.139Z,100667.50
2023-05-06T02:59:39.953Z,100663.81
2023-05-06T03:02:10.494Z,100664.28
2023-05-06T03:04:41.009Z,100667.97
2023-05-06T03:07:11.919Z,100668.09
2023-05-06T03:09:43.192Z,100652.28
2023-05-06T03:12:14.625Z,100655.25
2023-05-06T03:14:45.115Z,100638.13
2023-05-06T03:17:15.919Z,100641.84
2023-05-06T03:19:47.080Z,100641.72
2023-05-06T03:22:17.649Z,100641.16
2023-05-06T03:24:49.704Z,100634.91
2023-05-06T03:27:20.680Z,100636.63
2023-05-06T03:29:55.846Z,100638.94
2023-05-06T03:32:27.685Z,100632.22
2023-05-06T03:34:58.397Z,100632.09
2023-05-06T03:37:29.742Z,100633.78
2023-05-06T03:40:00.830Z,100628.25
2023-05-06T03:42:31.922Z,100621.22
2023-05-06T03:45:03.145Z,100618.44
2023-05-06T03:47:35.742Z,100616.34
2023-05-06T03:50:08.168Z,100609.59
2023-05-06T03:52:40.170Z,100605.22
2023-05-06T03:55:11.880Z,100599.31
2023-05-06T03:57:43.341Z,100594.50
2023-05-06T04:00:15.188Z,100587.34
2023-05-06T04:02:53.055Z,100580.66
2023-05-06T04:05:33.597Z,100573.00
2023-05-06T04:08:04.865Z,100564.19
2023-05-06T04:10:35.303Z,100570.22
2023-05-06T04:13:09.812Z,100568.34
2023-05-06T04:15:46.497Z,100560.72
2023-05-06T04:18:22.409Z,100560.88
2023-05-06T04:21:02.652Z,100557.66
2023-05-06T04:23:35.910Z,100552.56
2023-05-06T04:26:07.897Z,100545.84
2023-05-06T04:28:40.805Z,100545.00
2023-05-06T04:31:13.393Z,100536.88
2023-05-06T04:33:48.441Z,100532.88
2023-05-06T04:36:23.064Z,100528.69
2023-05-06T04:39:09.555Z,100527.06
2023-05-06T04:41:40.867Z,100517.66
2023-05-06T04:44:13.514Z,100511.63
2023-05-06T04:46:48.986Z,100503.22
2023-05-06T04:49:20.298Z,100505.78
2023-05-06T04:51:51.260Z,100496.28
2023-05-06T04:54:21.856Z,100491.81
2023-05-06T04:56:52.716Z,100484.13
2023-05-06T04:59:24.196Z,100479.44
2023-05-06T05:01:54.857Z,100474.44
2023-05-06T05:04:25.113Z,100467.91
2023-05-06T05:06:56.241Z,100459.59
2023-05-06T05:09:27.329Z,100461.94
2023-05-06T05:11:57.941Z,100456.66
2023-05-06T05:14:29.787Z,100449.41
2023-05-06T11:24:02.919Z,100005.41
2023-05-06T11:26:36.301Z,100007.44
2023-05-06T11:29:07.339Z,100002.81
2023-05-06T11:31:43.874Z,100002.97
2023-05-06T11:34:16.840Z,100011.31
2023-05-06T11:37:09.532Z,100011.94
2023-05-06T11:39:41.021Z,100017.50
2023-05-06T11:42:12.259Z,100017.00
2023-05-06T11:44:42.180Z,100024.66
2023-05-06T11:47:12.943Z,100025.88
2023-05-06T11:49:46.140Z,100031.41
2023-05-06T11:52:16.952Z,100029.81
2023-05-06T11:54:49.650Z,100027.44
2023-05-06T11:57:22.963Z,100035.38
2023-05-06T11:59:58.194Z,100040.06
2023-05-06T12:02:28.852Z,100042.81
2023-05-06T12:05:01.159Z,100039.56
2023-05-06T12:07:32.143Z,100049.59
2023-05-06T12:10:06.894Z,100055.41
2023-05-06T12:12:37.797Z,100061.03
2023-05-06T12:15:09.832Z,100066.22
2023-05-06T12:17:40.372Z,100059.06
2023-05-06T12:20:13.757Z,100065.78
2023-05-06T12:22:44.934Z,100069.09
2023-05-06T12:25:19.058Z,100077.44
2023-05-06T12:27:50.016Z,100084.16
2023-05-06T12:30:33.010Z,100081.59
2023-05-06T12:33:04.941Z,100087.66
2023-05-06T12:35:36.082Z,100091.97
2023-05-06T12:38:17.920Z,100093.56
2023-05-06T12:40:56.551Z,100099.53
2023-05-06T12:43:34.750Z,100106.66
2023-05-06T12:46:12.249Z,100100.25
2023-05-06T12:48:44.485Z,100112.19
2023-05-06T12:51:22.442Z,100112.28
2023-05-06T12:53:53.637Z,100122.03
2023-05-06T12:56:24.910Z,100122.88
2023-05-06T12:59:01.036Z,100131.09
2023-05-06T13:01:31.984Z,100138.78
2023-05-06T13:04:02.642Z,100142.75
2023-05-06T13:06:34.475Z,100141.19
2023-05-06T13:09:05.544Z,100142.31
2023-05-06T13:11:36.050Z,100150.28
2023-05-06T13:14:07.028Z,100155.78
2023-05-06T13:16:38.490Z,100157.69
2023-05-06T13:19:18.031Z,100170.81
2023-05-06T13:21:55.581Z,100162.53
2023-05-06T13:24:25.985Z,100168.09
2023-05-06T13:26:56.277Z,100167.72
2023-05-06T13:29:26.974Z,100179.66
2023-05-06T13:31:58.229Z,100182.75
2023-05-06T13:34:28.989Z,100176.31
2023-05-06T13:36:59.972Z,100189.66
2023-05-06T13:39:31.051Z,100197.75
2023-05-06T13:42:01.612Z,100188.00
2023-05-06T13:44:32.056Z,100199.28
2023-05-06T13:47:03.305Z,100198.00
2023-05-06T13:49:35.617Z,100203.66
2023-05-06T13:52:08.201Z,100204.81
2023-05-06T13:54:40.250Z,100203.38
2023-05-06T13:57:11.028Z,100205.63
2023-05-06T13:59:42.118Z,100215.06
2023-05-06T14:02:15.270Z,100224.09
2023-05-06T14:04:47.191Z,100217.84
2023-05-06T14:07:18.254Z,100231.13
2023-05-06T14:09:48.794Z,100233.97
2023-05-06T14:12:19.655Z,100221.31
2023-05-06T14:14:50.393Z,100231.31
2023-05-06T14:17:22.014Z,100240.34
2023-05-06T14:19:53.112Z,100240.34
2023-05-06T14:22:23.971Z,100247.50
2023-05-06T14:24:54.888Z,100246.84
2023-05-06T14:27:26.162Z,100255.19
2023-05-06T14:29:58.236Z,100257.53
2023-05-06T14:32:28.734Z,100260.31
2023-05-06T14:34:59.403Z,100254.03
2023-05-06T14:37:31.179Z,100256.47
2023-05-06T14:40:02.264Z,100258.84
2023-05-06T14:42:33.201Z,100267.09
2023-05-06T14:45:04.479Z,100277.00
2023-05-06T14:47:35.299Z,100273.50
2023-05-06T14:50:06.558Z,100270.25
2023-05-06T14:52:37.136Z,100276.84
2023-05-06T14:55:10.294Z,100286.81
2023-05-06T14:57:41.288Z,100291.34
2023-05-06T15:00:13.024Z,100294.47
2023-05-06T15:02:44.171Z,100298.06
2023-05-06T15:05:15.744Z,100297.56
2023-05-06T15:07:47.480Z,100301.59
2023-05-06T15:10:17.952Z,100304.00
2023-05-06T15:12:48.957Z,100305.97
2023-05-06T15:15:19.913Z,100309.44
2023-05-06T15:17:55.035Z,100310.22
2023-05-06T15:20:25.682Z,100317.31
2023-05-06T15:22:56.766Z,100316.66
2023-05-06T15:25:34.908Z,100324.56
2023-05-06T15:28:07.960Z,100326.19
2023-05-06T15:30:41.436Z,100327.59
2023-05-06T15:33:12.414Z,100332.91
2023-05-06T15:35:43.295Z,100342.81
2023-05-06T15:38:13.587Z,100336.41
2023-05-06T15:40:45.413Z,100341.97
2023-05-06T15:43:22.958Z,100342.69
2023-05-06T15:45:54.608Z,100344.28
2023-05-06T15:48:25.451Z,100342.25
2023-05-06T15:50:56.343Z,100348.38
2023-05-06T15:53:26.963Z,100344.56
2023-05-06T15:56:07.232Z,100351.56
2023-05-06T15:58:46.229Z,100347.94
2023-05-06T16:01:20.793Z,100355.88
2023-05-06T16:03:56.182Z,100351.41
2023-05-06T16:06:27.196Z,100350.53
2023-05-06T16:09:00.594Z,100360.94
2023-05-06T16:11:31.869Z,100355.38
2023-05-06T16:14:02.325Z,100360.13
2023-05-06T16:16:33.398Z,100358.53
2023-05-06T16:19:04.322Z,100363.25
2023-05-06T16:21:34.739Z,100360.13
2023-05-06T16:24:05.605Z,100358.41
2023-05-06T16:26:36.464Z,100354.47
2023-05-06T16:29:07.170Z,100354.13
2023-05-06T16:31:38.450Z,100357.25
2023-05-06T16:34:09.613Z,100353.31
2023-05-06T16:36:40.150Z,100354.03
2023-05-06T16:39:11.356Z,100354.47
2023-05-06T16:41:41.681Z,100358.06
2023-05-06T16:44:12.191Z,100358.41
2023-05-06T16:46:42.388Z,100350.00
2023-05-06T16:49:13.261Z,100356.81
2023-05-06T16:51:44.363Z,100351.25
2023-05-06T16:54:15.225Z,100349.63
2023-05-06T16:56:52.174Z,100354.84
2023-05-06T16:59:23.818Z,100357.19
2023-05-06T17:01:54.313Z,100352.34
2023-05-06T17:04:27.062Z,100347.59
2023-05-06T17:07:01.396Z,100340.41
2023-05-06T17:09:32.141Z,100343.19
2023-05-06T17:12:02.578Z,100345.63
2023-05-06T17:14:34.279Z,100337.63
2023-05-06T17:17:06.927Z,100339.94
2023-05-06T17:19:37.329Z,100341.13
2023-05-06T17:22:08.605Z,100337.53
2023-05-06T17:24:39.039Z,100329.63
2023-05-06T17:27:09.699Z,100331.16
2023-05-06T17:29:40.478Z,100328.84
2023-05-06T17:32:11.397Z,100325.63
2023-05-06T17:34:42.115Z,100316.50
2023-05-06T17:37:13.729Z,100322.84
2023-05-06T17:39:44.687Z,100322.84
2023-05-06T17:42:15.609Z,100318.00
2023-05-06T17:44:46.503Z,100316.84
2023-05-06T17:47:17.868Z,100315.22
2023-05-06T17:49:48.902Z,100302.50
2023-05-06T17:52:20.181Z,100307.34
2023-05-06T17:55:06.291Z,100312.44
2023-05-06T17:57:42.591Z,100306.09
2023-05-06T18:00:13.737Z,100303.22
2023-05-06T18:02:47.861Z,100310.75
2023-05-06T18:05:19.915Z,100307.59
2023-05-06T18:07:50.883Z,100306.72
2023-05-06T18:10:22.619Z,100299.56
2023-05-06T18:12:53.442Z,100303.22
2023-05-06T18:15:24.300Z,100297.56
2023-05-06T18:17:56.642Z,100293.56
2023-05-06T18:20:27.688Z,100308.25
2023-05-06T18:22:59.050Z,100299.13
2023-05-06T18:25:29.379Z,100303.13
2023-05-06T18:28:02.364Z,100295.19
2023-05-06T18:30:33.216Z,100299.91
2023-05-06T18:33:04.284Z,100295.19
2023-05-06T18:35:35.137Z,100291.94
2023-05-06T18:38:05.802Z,100294.72
2023-05-06T18:40:37.532Z,100306.28
2023-05-06T18:43:11.565Z,100299.03
2023-05-06T18:45:43.175Z,100300.22
2023-05-06T18:48:15.040Z,100298.59
2023-05-06T18:50:46.753Z,100300.66
2023-05-06T18:53:18.278Z,100301.81
2023-05-06T18:55:49.141Z,100301.81
2023-05-06T18:58:21.315Z,100294.28
2023-05-06T19:00:51.744Z,100289.09
2023-05-06T19:03:22.341Z,100287.13
2023-05-06T19:05:53.464Z,100287.94
2023-05-06T19:08:24.072Z,100286.22
2023-05-06T19:10:55.701Z,100275.09
2023-05-06T19:13:26.426Z,100278.25
2023-05-06T19:15:57.493Z,100277.47
2023-05-06T19:18:27.991Z,100285.44
2023-05-06T19:21:00.719Z,100281.03
2023-05-06T19:23:31.391Z,100278.25
2023-05-06T19:26:01.908Z,100277.47
2023-05-06T19:28:32.991Z,100269.47
2023-05-06T19:31:11.552Z,100269.47
2023-05-06T19:33:44.258Z,100271.00
2023-05-06T19:36:14.567Z,100270.19
2023-05-06T19:38:45.289Z,100267.78
2023-05-06T19:41:16.203Z,100270.63
2023-05-06T19:43:47.624Z,100270.19
2023-05-06T19:46:19.138Z,100276.56
2023-05-06T19:48:49.515Z,100279.34
2023-05-06T19:51:20.473Z,100282.91
2023-05-06T19:53:51.823Z,100284.19
2023-05-06T19:56:23.137Z,100290.53
2023-05-06T19:58:56.262Z,100279.78
2023-05-06T20:01:27.587Z,100284.91
2023-05-06T20:03:59.813Z,100286.84
2023-05-06T20:06:32.260Z,100285.25
2023-05-06T20:09:03.745Z,100285.25
2023-05-06T20:11:35.016Z,100283.75
2023-05-06T20:14:06.644Z,100281.31
2023-05-06T20:16:37.574Z,100274.59
2023-05-06T20:19:07.997Z,100274.97
2023-05-06T20:21:39.693Z,100271.28
2023-05-06T20:24:10.128Z,100270.94
2023-05-06T20:26:40.605Z,100271.72
2023-05-06T20:29:12.362Z,100276.50
2023-05-06T20:31:43.090Z,100278.91
2023-05-06T20:34:13.482Z,100278.06
2023-05-06T20:36:45.665Z,100279.69
2023-05-06T20:39:16.561Z,100273.78
2023-05-06T20:41:47.136Z,100278.44
2023-05-06T20:44:18.025Z,100282.06
2023-05-06T20:46:48.618Z,100282.38
2023-05-06T20:49:23.077Z,100278.00
2023-05-06T20:51:55.181Z,100280.78
2023-05-06T20:54:26.110Z,100284.81
2023-05-06T20:56:56.562Z,100278.44
2023-05-06T20:59:27.806Z,100284.72
2023-05-06T21:02:01.785Z,100276.38
2023-05-06T21:04:32.964Z,100288.31
2023-05-06T21:07:03.175Z,100282.66
2023-05-06T21:09:33.405Z,100282.66
2023-05-06T21:12:04.566Z,100292.19
2023-05-06T21:14:35.358Z,100291.34
2023-05-06T21:17:05.864Z,100295.38
2023-05-06T21:19:37.387Z,100297.72
2023-05-06T21:22:08.261Z,100303.72
2023-05-06T21:24:40.277Z,100300.50
2023-05-06T21:27:12.375Z,100299.69
2023-05-06T21:29:43.088Z,100304.09
2023-05-06T21:32:14.126Z,100308.84
2023-05-06T21:34:44.837Z,100320.28
2023-05-06T21:37:15.706Z,100313.94
2023-05-06T21:39:46.385Z,100319.94
2023-05-06T21:42:17.171Z,100325.84
2023-05-06T21:44:48.110Z,100325.06
2023-05-06T21:47:18.632Z,100324.59
2023-05-06T21:49:50.461Z,100327.38
2023-05-06T21:52:21.760Z,100333.72
2023-05-06T21:54:52.929Z,100332.94
2023-05-06T21:57:23.778Z,100337.31
2023-05-06T21:59:54.432Z,100336.06
2023-05-06T22:02:25.263Z,100338.47
2023-05-06T22:04:55.747Z,100342.44
2023-05-06T22:07:26.687Z,100342.31
2023-05-06T22:09:57.253Z,100349.13
2023-05-06T22:12:28.948Z,100353.75
2023-05-06T22:15:00.986Z,100355.84
2023-05-06T22:17:31.908Z,100360.25
2023-05-06T22:20:05.157Z,100363.38
2023-05-06T22:22:36.487Z,100363.69
2023-05-06T22:25:07.947Z,100371.34
2023-05-06T22:27:39.506Z,100369.75
2023-05-06T22:30:11.291Z,100377.28
2023-05-06T22:32:42.341Z,100381.97
2023-05-06T22:35:13.622Z,100383.13
2023-05-06T22:37:44.441Z,100388.69
2023-05-06T22:40:15.813Z,100391.84
2023-05-06T22:42:46.300Z,100393.34
2023-05-06T22:45:16.652Z,100393.25
2023-05-06T22:47:47.866Z,100399.63
2023-05-06T22:50:18.456Z,100410.63
2023-05-06T22:52:49.314Z,100412.94
2023-05-06T22:55:19.859Z,100415.38
2023-05-06T22:57:54.475Z,100422.88
2023-05-06T23:00:25.185Z,100432.38
2023-05-06T23:02:55.571Z,100434.81
2023-05-06T23:05:26.618Z,100443.84
2023-05-06T23:07:58.276Z,100445.44
2023-05-06T23:10:31.369Z,100454.94
2023-05-06T23:13:05.878Z,100456.56
2023-05-06T23:15:36.537Z,100454.94
2023-05-06T23:18:07.757Z,100461.28
2023-05-06T23:20:38.893Z,100458.88
2023-05-06T23:23:12.970Z,100464.88
2023-05-06T23:25:43.962Z,100468.03
2023-05-06T23:28:14.453Z,100475.16
2023-05-06T23:30:46.958Z,100472.75
2023-05-06T23:33:17.381Z,100485.03
2023-05-06T23:35:48.031Z,100481.78
2023-05-06T23:38:18.824Z,100488.97
2023-05-06T23:40:49.452Z,100490.56
2023-05-06T23:43:20.499Z,100494.50
2023-05-06T23:45:52.502Z,100492.19
2023-05-06T23:48:23.644Z,100493.72
2023-05-06T23:50:53.955Z,100496.03
2023-05-06T23:53:25.093Z,100511.25
2023-05-06T23:55:55.531Z,100515.56
2023-05-06T23:58:27.186Z,100519.94
